Search for airport 
image banner adimage banner adimage banner ad
image banner ad

1CA9 - Los Angeles County Fire Department

Located in Thousand Oaks, United States

ICAO - 1CA9, IATA -

Data provided by Airmate  

General information

Coordinates: N34°5'1" W118°51'48"
Elevation is 1360 feet MSL.
Magnetic variation is 14° East
View others Airports in California

Operational data

Special qualification required
Current time UTC:
Current local time:
METAR: KNTD 210052Z 23006KT 7SM CLR 21/14 A2990 RMK AO2 SLP125 T02060144 VISNO N $
TAF: TAF KNTD 2023/2123 24009KT 9999 FEW010 QNH2986INS FM210200 VRB06KT 9000 HZ FEW010 QNH2987INS TEMPO 2102/2107 18008KT FM210900 03004KT 9000 HZ SCT008 QNH2985INS AUTOMATED SENSOR METWATCH 2106 TIL 2113 T13/2111Z T22/2121Z FS30029
View NOTAMs / SUP AIP / TFR affecting this airport [VIEW]
Communications frequencies: [VIEW]

Runways:

Airport contact information

Address: Thousand Oaks United States

Satellite view of 1CA9